SEVA (Osona)





Hora UTC 04:40
Temperatura 13.3 ºC
Sòl 15 cm 11.0 ºC
Humitat 87.1 %
Pressió 1015.5 hPa
Pluja 0.0 mm
Velocitat vent 0.0 km/h
Direcció vent NNE
Radiació solar 15.3 W/m²

Dades diàries 2024-05-30



Hora UTC (hivern +1h; estiu +2h)
Temperatura (ºC) Humitat (%) Pressió (hPa) Velocitat vent (km/h) Precipitació (mm) Radiació solar (W/m²)
Hora UTC Aire Sòl 15 cm Humitat Pressió Vel. Dir. Vel. Max Dir. Intent. màx 5 min. Rad. Sol.
00:05 17.0 14.9 76.4 1017.3 0.0 NNE 0.0 SSE 0.0 0.1
00:10 17.0 14.7 76.2 1017.3 0.0 NNE 0.0 SSE 0.0 0.1
00:15 16.7 14.4 76.9 1017.3 0.0 NNE 0.0 SSE 0.0 0.1
00:20 16.4 14.1 79.4 1017.2 0.0 NNE 0.0 SE 0.0 0.1
00:25 16.1 13.9 80.0 1017.2 0.0 NNE 0.0 SE 0.0 0.1
00:30 16.0 13.7 80.6 1017.2 0.0 NNE 0.0 SSE 0.0 0.1
00:35 15.7 13.5 82.1 1017.2 0.0 NNE 0.0 SE 0.0 0.1
00:40 15.4 13.2 83.3 1017.2 0.0 NNE 0.0 SSE 0.0 0.1
00:45 15.1 12.9 84.5 1017.1 0.0 NNE 0.0 ESE 0.0 0.1
00:50 14.9 12.7 85.3 1017.1 0.0 NNE 0.0 SSE 0.0 0.0
00:55 14.7 12.6 85.4 1017.1 0.0 NNE 0.0 E 0.0 0.0
01:00 14.5 12.5 86.4 1017.1 0.0 NNE 0.0 E 0.0 0.1
01:05 14.3 12.4 87.1 1017.0 0.0 NNE 0.0 ESE 0.0 0.0
01:10 14.2 12.3 87.5 1017.0 0.0 NNE 0.0 SE 0.0 0.1
01:15 14.1 12.2 88.1 1016.9 0.0 NNE 0.0 SE 0.0 0.1
01:20 14.0 12.1 88.5 1016.9 0.0 NNE 0.0 SE 0.0 0.0
01:25 14.1 12.0 88.7 1016.8 0.0 NNE 0.0 ESE 0.0 0.0
01:30 14.1 12.0 88.5 1016.8 0.0 NNE 0.0 ESE 0.0 0.0
01:35 14.1 11.9 89.0 1016.8 0.0 NNE 0.0 ESE 0.0 0.1
01:40 14.1 11.8 88.7 1016.7 0.0 NNE 0.0 ESE 0.0 0.0
01:45 14.0 11.8 88.8 1016.6 0.0 NNE 0.0 ESE 0.0 0.1
01:50 13.9 11.8 89.2 1016.5 0.0 NNE 0.0 SE 0.0 0.1
01:55 14.0 11.9 89.7 1016.5 0.0 NNE 0.0 SW 0.0 0.1
02:00 14.3 12.1 88.3 1016.4 0.0 NNE 0.0 S 0.0 0.1
02:05 14.5 12.1 86.6 1016.4 0.0 NNE 0.0 S 0.0 0.0
02:10 14.8 12.3 86.1 1016.3 0.0 NNE 0.0 SSE 0.0 0.1
02:15 14.9 12.3 85.4 1016.3 0.0 NNE 0.0 SE 0.0 0.0
02:20 14.8 12.3 85.3 1016.3 0.0 NNE 0.0 SSE 0.0 0.0
02:25 14.8 12.2 85.1 1016.2 0.0 NNE 0.0 SE 0.0 0.1
02:30 14.6 12.1 85.4 1016.2 0.0 NNE 0.0 ESE 0.0 0.1
02:35 14.2 11.9 86.4 1016.1 0.0 NNE 0.0 ESE 0.0 0.1
02:40 13.9 11.7 87.4 1016.0 0.0 NNE 0.0 SE 0.0 0.1
02:45 13.7 11.6 88.4 1016.0 0.0 NNE 0.0 E 0.0 0.1
02:50 13.8 11.7 88.2 1016.0 0.0 NNE 0.0 E 0.0 0.1
02:55 13.8 11.7 88.0 1016.0 0.0 NNE 0.0 ESE 0.0 0.1
03:00 13.7 11.6 88.2 1015.9 0.0 NNE 0.0 ESE 0.0 0.0
03:05 13.6 11.4 89.0 1015.9 0.0 NNE 0.0 SE 0.0 0.0
03:10 13.4 11.2 89.2 1015.8 0.0 NNE 0.0 SE 0.0 0.1
03:15 13.2 11.0 89.5 1015.7 0.0 NNE 0.0 ESE 0.0 0.0
03:20 13.2 11.0 89.6 1015.7 0.0 NNE 0.0 SE 0.0 0.1
03:25 13.2 11.0 89.9 1015.6 0.0 NNE 0.0 ESE 0.0 0.0
03:30 13.4 11.1 89.9 1015.5 0.0 NNE 0.0 ESE 0.0 0.0
03:35 13.7 11.5 86.9 1015.5 0.0 NNE 0.0 SSW 0.0 0.1
03:40 14.1 11.8 84.2 1015.4 0.0 NNE 0.0 S 0.0 0.0
03:45 14.2 12.0 83.0 1015.4 0.0 NNE 0.0 S 0.0 0.1
03:50 14.3 12.0 82.5 1015.3 0.0 NNE 0.0 S 0.0 0.1
03:55 14.0 11.7 83.5 1015.2 0.0 NNE 0.0 S 0.0 0.1
04:00 13.7 11.4 85.1 1015.2 0.0 NNE 0.0 ENE 0.0 0.1
04:05 13.4 11.1 86.8 1015.2 0.0 NNE 0.0 E 0.0 0.4
04:10 13.3 11.1 87.0 1015.2 0.0 NNE 0.0 ESE 0.0 1.0
04:15 13.2 10.9 86.6 1015.2 0.0 NNE 0.0 E 0.0 2.3
04:20 12.9 10.7 87.5 1015.3 0.0 NNE 0.0 E 0.0 3.8
04:25 13.0 10.7 87.6 1015.3 0.0 NNE 0.0 E 0.0 5.1
04:30 12.9 10.8 87.3 1015.4 0.0 NNE 0.0 E 0.0 7.6
04:35 13.0 10.8 87.8 1015.4 0.0 NNE 0.0 ESE 0.0 11.0
04:40 13.3 11.0 87.1 1015.5 0.0 NNE 0.0 ESE 0.0 15.3
Màxima 17.0 14.9 89.9 1017.3 0.0 NNE 0.0 ESE 0.0 15.3
Mínima 12.8 10.7 76.2 1015.2
Total 0.0